KPVDKOWD

Guest
Details From KPVD - THEODORE FRANCIS GREEN STATE
To KOWD - NORWOOD MEM
Flight Number -
Tags generated
Created
Modified
Stats Distance 30 nm / 56 km
Max Altitude 0 ft / 0 m
Waypoints 3
Social Downloads 0
Likes 0
Share VATSIM

Download

Looking for another format? Having issues loading an existing format? Contact us
Advertisement - Login to hide

Notes

Basic altitude profile: - Ascent Rate: 2500ft/min - Ascent Speed: 250kts - Cruise Altitude: 35000ft - Cruise Speed: 420kts - Descent Rate: 1500ft/min - Descent Speed: 250kts Options: - Use NATs: yes - Use PACOTS: yes - Use low airways: yes - Use high airways: yes

Route

KPVD PVD KOWD

ID Type Via Altitude Latitude Longitude Leg Dist Tot Dist Heading (true) Name
O KPVD APT - 0 ft / 0 m 41.72365˚ -71.42660˚ - 0 nm - THEODORE FRANCIS GREEN STATE
PVD VOR - 0 ft / 0 m 41.72433˚ -71.42964˚ 0 nm 0 nm 287° / 287° PROVIDENCE VORTAC
O KOWD APT - 0 ft / 0 m 42.19052˚ -71.17293˚ 30 nm 30 nm 22° / 22° NORWOOD MEM

Altitude Profile

Advertisement - Login to hide

KPVD

Details ICAO KPVD (PVD)
Name THEODORE FRANCIS GREEN STATE
Region United States
Timezone America/New_York (UTC-5.0)
Stats Elevation 55 ft / 17 m (AMSL)
Location 41.723655° -71.426600°
Runways 2
Magnetic Variation 14.336° W

METAR

KPVD 141508Z 34005KT 7SM FEW014 BKN042 OVC060 M05/M07 A2966

Decode

TAF

KPVD 141517Z 1415/1512 34005KT P6SM BKN040 OVC060 FM141600 35008KT P6SM OVC060 FM141800 32010KT P6SM SCT120 FM142000 30012G22KT P6SM SKC FM150200 30009KT P6SM SKC FM150800 28006KT P6SM FEW250

Decode

Departure Runways

ID Width Length Bearing (true) Bearing (mag) Surface Threshold Offset Overrun Length
05 150 ft / 46 m 7,169 ft / 2,185 m 32.07° 46.41° Asphalt 0 ft / 0 m 190 ft / 58 m
16 150 ft / 46 m 6,081 ft / 1,854 m 141.68° 156.02° Asphalt 564 ft / 172 m 138 ft / 42 m
23 150 ft / 46 m 7,169 ft / 2,185 m 212.08° 226.42° Asphalt 0 ft / 0 m 95 ft / 29 m
34 150 ft / 46 m 6,081 ft / 1,854 m 321.69° 336.03° Asphalt 0 ft / 0 m 0 ft / 0 m

KOWD

Details ICAO KOWD (OWD)
Name NORWOOD MEM
Region United States
Timezone America/New_York (UTC-5.0)
Stats Elevation 49 ft / 15 m (AMSL)
Location 42.190523° -71.172928°
Runways 2
Magnetic Variation 14.560° W

METAR

KOWD 141453Z 25004KT 10SM FEW060 M04/M10 A2964 RMK AO2 SLP037 T10391100 53008

Decode

TAF

Not found

Destination Runways

ID Width Length Bearing (true) Bearing (mag) Surface Threshold Offset Overrun Length
10 75 ft / 23 m 3,986 ft / 1,215 m 88.76° 103.32° Asphalt 987 ft / 301 m 0 ft / 0 m
17 100 ft / 30 m 4,011 ft / 1,223 m 154.85° 169.41° Asphalt 0 ft / 0 m 0 ft / 0 m
28 75 ft / 23 m 3,986 ft / 1,215 m 268.77° 283.33° Asphalt 0 ft / 0 m 0 ft / 0 m
35 100 ft / 30 m 4,011 ft / 1,223 m 334.85° 349.41° Asphalt 0 ft / 0 m 0 ft / 0 m

Approach Navaids

Runway Type Ident Frequency Range Bearing (true) Bearing (mag) Slope Elevation
35 Localiser IOWD 108.30 MHz 18 nm / 33 km 334.86° 349.42° - 45 ft / 14 m (AMSL)
35 DME IOWD 108.30 MHz 18 nm / 33 km - - - 61 ft / 19 m (AMSL)